createdAt,value
2022-10-12T00:02:17.532Z,76.50
2022-10-12T00:04:48.298Z,77.40
2022-10-12T00:07:20.661Z,78.10
2022-10-12T00:09:51.367Z,76.20
2022-10-12T00:12:22.103Z,76.30
2022-10-12T00:14:53.046Z,78.30
2022-10-12T00:17:23.846Z,79.50
2022-10-12T00:19:54.603Z,79.50
2022-10-12T00:22:27.017Z,78.20
2022-10-12T00:24:57.755Z,79.40
2022-10-12T00:27:28.532Z,80.30
2022-10-12T00:29:59.267Z,80.70
2022-10-12T00:32:30.021Z,82.80
2022-10-12T00:35:00.757Z,81.90
2022-10-12T00:37:33.652Z,83.90
2022-10-12T00:40:04.506Z,84.60
2022-10-12T00:42:35.293Z,86.60
2022-10-12T00:45:06.114Z,87.80
2022-10-12T00:47:38.889Z,86.70
2022-10-12T00:50:15.557Z,88.10
2022-10-12T00:52:58.816Z,90.30
2022-10-12T00:55:32.186Z,91.10
2022-10-12T00:58:03.673Z,91.60
2022-10-12T01:00:34.706Z,91.90
2022-10-12T01:03:05.701Z,93.10
2022-10-12T01:05:36.574Z,93.10
2022-10-12T01:08:09.270Z,93.70
2022-10-12T01:10:40.065Z,94.50
2022-10-12T01:13:11.137Z,95.20
2022-10-12T01:15:48.152Z,96.10
2022-10-12T01:18:23.883Z,96.30
2022-10-12T01:21:21.249Z,97.00
2022-10-12T01:24:30.313Z,97.70
2022-10-12T01:27:32.343Z,98.30
2022-10-12T01:30:17.459Z,98.80
2022-10-12T01:33:02.622Z,99.50
2022-10-12T01:35:40.829Z,99.90
2022-10-12T01:38:21.196Z,99.90
2022-10-12T01:40:58.299Z,99.90
2022-10-12T01:43:37.474Z,99.90
2022-10-12T01:46:55.286Z,99.90
2022-10-12T01:49:29.897Z,99.90
2022-10-12T01:52:25.498Z,99.90
2022-10-12T01:55:22.590Z,99.90
2022-10-12T01:58:14.825Z,99.90
2022-10-12T02:00:50.658Z,99.90
2022-10-12T02:03:29.923Z,99.90
2022-10-12T02:06:03.956Z,99.90
2022-10-12T02:08:38.002Z,99.90
2022-10-12T02:11:11.839Z,99.90
2022-10-12T02:13:47.643Z,99.90
2022-10-12T02:16:21.613Z,99.90
2022-10-12T02:18:57.076Z,99.90
2022-10-12T02:21:32.063Z,99.90
2022-10-12T02:24:05.529Z,99.90
2022-10-12T02:26:38.328Z,99.90
2022-10-12T02:29:13.322Z,99.90
2022-10-12T02:31:52.298Z,99.90
2022-10-12T02:34:28.293Z,99.90
2022-10-12T02:37:05.830Z,99.90
2022-10-12T02:39:43.273Z,99.90
2022-10-12T02:42:19.387Z,99.90
2022-10-12T02:44:51.342Z,99.90
2022-10-12T02:47:23.910Z,99.90
2022-10-12T02:49:58.202Z,99.90
2022-10-12T02:52:29.514Z,99.90
2022-10-12T02:55:00.339Z,99.90
2022-10-12T02:57:31.090Z,99.90
2022-10-12T03:00:01.875Z,99.90
2022-10-12T03:02:32.613Z,99.90
2022-10-12T03:05:05.029Z,99.90
2022-10-12T03:07:36.075Z,99.90
2022-10-12T03:10:07.884Z,99.90
2022-10-12T03:12:38.614Z,99.90
2022-10-12T03:15:09.989Z,99.90
2022-10-12T03:17:40.782Z,99.90
2022-10-12T03:20:15.273Z,99.90
2022-10-12T03:22:46.010Z,99.90
2022-10-12T03:25:16.801Z,99.90
2022-10-12T03:27:47.553Z,99.90
2022-10-12T03:30:18.565Z,99.90
2022-10-12T03:32:49.287Z,99.90
2022-10-12T03:35:21.641Z,99.90
2022-10-12T03:37:52.470Z,99.90
2022-10-12T03:40:23.221Z,99.90
2022-10-12T03:42:54.059Z,99.90
2022-10-12T03:45:24.819Z,99.90
2022-10-12T03:47:55.554Z,99.90
2022-10-12T03:50:27.997Z,99.90
2022-10-12T03:52:58.949Z,99.90
2022-10-12T03:55:29.902Z,99.90
2022-10-12T03:58:00.695Z,99.90
2022-10-12T04:00:32.134Z,99.90
2022-10-12T04:03:04.609Z,99.90
2022-10-12T04:05:38.174Z,99.90
2022-10-12T04:08:09.156Z,99.90
2022-10-12T04:10:39.957Z,99.90
2022-10-12T04:13:10.685Z,99.90
2022-10-12T04:15:41.430Z,99.90
2022-10-12T04:18:12.358Z,99.90
2022-10-12T04:20:44.749Z,99.90
2022-10-12T04:23:15.549Z,99.90
2022-10-12T04:25:46.694Z,99.90
2022-10-12T04:28:17.463Z,99.90
2022-10-12T04:30:48.977Z,99.90
2022-10-12T04:33:19.745Z,99.90
2022-10-12T04:35:52.142Z,99.90
2022-10-12T04:38:22.896Z,99.90
2022-10-12T04:40:53.657Z,99.90
2022-10-12T04:43:24.398Z,99.90
2022-10-12T04:45:59.549Z,99.90
2022-10-12T04:48:30.615Z,99.90
2022-10-12T04:51:03.014Z,99.90
2022-10-12T04:53:33.776Z,99.90
2022-10-12T04:56:07.021Z,99.90
2022-10-12T04:58:37.830Z,99.90
2022-10-12T05:01:08.925Z,99.90
2022-10-12T05:03:42.090Z,99.90
2022-10-12T05:06:14.723Z,99.90
2022-10-12T05:08:45.459Z,99.90
2022-10-12T05:11:16.256Z,99.90
2022-10-12T05:13:47.023Z,99.90
2022-10-12T05:16:17.790Z,99.90
2022-10-12T05:18:48.785Z,99.90
2022-10-12T05:21:21.153Z,99.90
2022-10-12T05:23:55.102Z,99.90
2022-10-12T05:26:25.851Z,99.90
2022-10-12T05:28:56.650Z,99.90
2022-10-12T05:31:27.483Z,99.90
2022-10-12T05:33:58.204Z,99.90
2022-10-12T05:36:30.608Z,99.90
2022-10-12T05:39:01.324Z,99.90
2022-10-12T05:41:32.098Z,99.90
2022-10-12T05:44:02.889Z,99.90
2022-10-12T05:46:33.624Z,99.90
2022-10-12T05:49:04.524Z,99.90
2022-10-12T05:51:36.916Z,99.90
2022-10-12T05:54:07.773Z,99.90
2022-10-12T05:56:38.526Z,99.90
2022-10-12T05:59:09.266Z,99.90
2022-10-12T06:01:40.199Z,99.90
2022-10-12T06:04:11.739Z,99.90
2022-10-12T06:06:44.087Z,99.90
2022-10-12T06:09:14.838Z,99.90
2022-10-12T06:11:46.392Z,99.90
2022-10-12T06:14:18.129Z,99.90
2022-10-12T06:16:51.126Z,99.90
2022-10-12T06:19:25.201Z,99.90
2022-10-12T06:21:57.608Z,99.90
2022-10-12T06:24:28.380Z,99.90
2022-10-12T06:26:59.352Z,99.90
2022-10-12T06:29:30.900Z,99.90
2022-10-12T06:32:02.674Z,99.90
2022-10-12T06:34:33.408Z,99.90
2022-10-12T06:37:05.861Z,99.90
2022-10-12T06:39:36.600Z,99.90
2022-10-12T06:42:08.838Z,99.90
2022-10-12T06:44:40.611Z,99.90
2022-10-12T06:47:11.361Z,99.90
2022-10-12T06:49:42.115Z,99.90
2022-10-12T06:52:14.507Z,99.90
2022-10-12T06:54:45.239Z,99.90
2022-10-12T06:57:15.988Z,99.90
2022-10-12T06:59:46.754Z,99.90
2022-10-12T07:02:17.517Z,99.90
2022-10-12T07:04:51.674Z,99.90
2022-10-12T07:07:24.059Z,99.90
2022-10-12T07:09:55.290Z,99.90
2022-10-12T07:12:26.127Z,99.90
2022-10-12T07:14:57.186Z,99.90
2022-10-12T07:17:28.021Z,99.90
2022-10-12T07:19:59.754Z,99.90
2022-10-12T07:22:32.148Z,99.90
2022-10-12T07:25:02.869Z,99.90
2022-10-12T07:27:33.605Z,99.90
2022-10-12T07:30:04.401Z,99.90
2022-10-12T07:32:35.176Z,99.90
2022-10-12T07:35:06.053Z,99.90
2022-10-12T07:37:38.858Z,99.90
2022-10-12T07:40:11.103Z,99.90
2022-10-12T07:42:59.133Z,99.90
2022-10-12T07:45:32.639Z,99.90
2022-10-12T07:48:03.374Z,99.90
2022-10-12T07:50:34.095Z,99.90
2022-10-12T07:53:06.558Z,99.90
2022-10-12T07:55:37.279Z,99.90
2022-10-12T07:58:08.342Z,99.90
2022-10-12T08:00:39.090Z,99.90
2022-10-12T08:03:09.830Z,99.90
2022-10-12T08:05:40.557Z,99.90
2022-10-12T08:08:12.915Z,99.90
2022-10-12T08:10:43.679Z,99.90
2022-10-12T08:13:14.454Z,99.90
2022-10-12T08:15:50.781Z,99.90
2022-10-12T08:18:21.545Z,99.90
2022-10-12T08:20:52.306Z,99.90
2022-10-12T08:23:24.959Z,99.90
2022-10-12T08:25:56.423Z,99.90
2022-10-12T08:28:27.839Z,99.90
2022-10-12T08:30:58.623Z,99.90
2022-10-12T08:33:32.429Z,99.90
2022-10-12T08:36:05.714Z,99.90
2022-10-12T08:38:39.625Z,99.90
2022-10-12T08:41:23.946Z,99.90
2022-10-12T08:44:09.289Z,99.90
2022-10-12T08:46:40.155Z,99.90
2022-10-12T08:49:16.323Z,99.90
2022-10-12T08:51:51.845Z,99.90
2022-10-12T08:54:26.966Z,99.90
2022-10-12T08:56:58.690Z,99.90
2022-10-12T08:59:30.966Z,99.90
2022-10-12T09:02:16.389Z,99.90
2022-10-12T09:04:56.613Z,99.90
2022-10-12T09:07:31.978Z,99.90
2022-10-12T09:10:19.555Z,99.90
2022-10-12T09:12:57.890Z,99.90
2022-10-12T09:15:34.535Z,99.90
2022-10-12T09:18:08.983Z,99.90
2022-10-12T09:20:48.392Z,99.90
2022-10-12T09:23:26.770Z,99.90
2022-10-12T09:26:04.618Z,99.90
2022-10-12T09:28:41.780Z,99.90
2022-10-12T09:31:27.633Z,99.90
2022-10-12T09:34:00.444Z,99.90
2022-10-12T09:36:35.055Z,99.90
2022-10-12T09:39:08.947Z,99.90
2022-10-12T09:41:45.553Z,99.90
2022-10-12T09:44:25.363Z,99.90
2022-10-12T09:47:00.697Z,99.90
2022-10-12T09:49:44.106Z,99.90
2022-10-12T09:52:17.055Z,99.90
2022-10-12T09:54:51.407Z,99.90
2022-10-12T09:57:28.327Z,99.90
2022-10-12T09:59:59.213Z,99.90
2022-10-12T10:02:30.559Z,99.90
2022-10-12T10:05:25.168Z,99.90
2022-10-12T10:07:56.114Z,99.90
2022-10-12T10:10:30.644Z,99.90
2022-10-12T10:13:06.353Z,99.90
2022-10-12T10:15:39.808Z,99.90
2022-10-12T10:18:23.574Z,99.90
2022-10-12T10:20:56.498Z,99.90
2022-10-12T10:23:29.425Z,99.90
2022-10-12T10:26:02.488Z,99.90
2022-10-12T10:28:36.154Z,99.90
2022-10-12T10:31:08.618Z,99.90
2022-10-12T10:33:39.750Z,99.90
2022-10-12T10:36:20.977Z,99.90
2022-10-12T10:39:00.038Z,99.90
2022-10-12T10:41:34.658Z,99.90
2022-10-12T10:44:08.095Z,99.90
2022-10-12T10:46:40.216Z,99.90
2022-10-12T10:49:12.278Z,99.90
2022-10-12T10:51:46.249Z,99.90
2022-10-12T10:54:19.115Z,99.90
2022-10-12T10:56:51.208Z,99.90
2022-10-12T10:59:33.153Z,99.90
2022-10-12T11:02:07.598Z,99.90
2022-10-12T11:04:43.455Z,99.90
2022-10-12T11:07:23.703Z,99.90
2022-10-12T11:09:57.635Z,99.90
2022-10-12T11:12:32.401Z,99.90
2022-10-12T11:15:15.499Z,99.90
2022-10-12T11:17:49.330Z,99.90
2022-10-12T11:20:37.079Z,99.90
2022-10-12T11:23:17.525Z,99.90
2022-10-12T11:25:58.988Z,99.90
2022-10-12T11:28:35.122Z,99.90
2022-10-12T11:31:10.036Z,99.90
2022-10-12T11:33:44.237Z,99.90
2022-10-12T11:36:17.449Z,99.90
2022-10-12T11:38:56.516Z,99.90
2022-10-12T11:41:36.758Z,99.90
2022-10-12T11:44:14.687Z,99.90
2022-10-12T11:46:49.761Z,99.90
2022-10-12T11:49:28.455Z,99.90
2022-10-12T11:52:02.398Z,99.90
2022-10-12T11:54:39.640Z,99.90
2022-10-12T11:57:16.238Z,99.90
2022-10-12T11:59:51.115Z,99.90
2022-10-12T12:02:28.074Z,99.90
2022-10-12T12:04:59.696Z,99.90
2022-10-12T12:07:46.530Z,99.90
2022-10-12T12:10:54.883Z,99.90
2022-10-12T12:13:27.963Z,99.90
2022-10-12T12:16:33.084Z,99.90
2022-10-12T12:19:34.404Z,99.90
2022-10-12T12:22:29.725Z,99.90
2022-10-12T12:25:25.072Z,99.90
2022-10-12T12:27:58.486Z,99.90
2022-10-12T12:30:39.536Z,99.90
2022-10-12T12:33:30.234Z,99.90
2022-10-12T12:36:05.280Z,99.90
2022-10-12T12:38:38.169Z,99.90
2022-10-12T12:41:13.230Z,99.90
2022-10-12T12:44:05.519Z,99.90
2022-10-12T12:47:44.550Z,99.90
2022-10-12T12:50:34.248Z,99.90
2022-10-12T12:53:10.772Z,99.90
2022-10-12T12:56:05.530Z,99.90
2022-10-12T12:59:07.073Z,99.90
2022-10-12T13:01:55.226Z,99.90
2022-10-12T13:04:53.307Z,99.90
2022-10-12T13:07:56.609Z,99.90
2022-10-12T13:10:43.438Z,99.90
2022-10-12T13:13:39.238Z,99.90
2022-10-12T13:16:57.213Z,99.90
2022-10-12T13:19:18.721Z,99.90
2022-10-12T13:21:55.594Z,99.90
2022-10-12T13:24:29.598Z,99.90
2022-10-12T13:27:07.514Z,99.90
2022-10-12T13:29:44.153Z,99.90
2022-10-12T13:32:25.319Z,99.90
2022-10-12T13:34:58.003Z,99.90
2022-10-12T13:37:34.747Z,99.90
2022-10-12T13:40:06.216Z,99.90
2022-10-12T13:42:38.695Z,99.90
2022-10-12T13:45:18.397Z,99.90
2022-10-12T13:47:49.151Z,99.90
2022-10-12T13:50:22.915Z,99.90
2022-10-12T13:52:57.127Z,99.90
2022-10-12T13:55:29.996Z,99.90
2022-10-12T13:58:02.375Z,99.90
2022-10-12T14:00:36.234Z,99.90
2022-10-12T14:03:08.863Z,99.90
2022-10-12T14:05:46.922Z,99.90
2022-10-12T14:08:22.150Z,99.90
2022-10-12T14:10:52.966Z,99.90
2022-10-12T14:13:29.438Z,99.90
2022-10-12T14:16:02.264Z,99.90
2022-10-12T14:18:41.382Z,99.90
2022-10-12T14:21:20.182Z,99.90
2022-10-12T14:23:57.881Z,99.90
2022-10-12T14:26:31.834Z,99.90
2022-10-12T14:29:24.258Z,99.90
2022-10-12T14:31:56.480Z,99.90
2022-10-12T14:34:47.395Z,99.90
2022-10-12T14:37:27.566Z,99.90
2022-10-12T14:40:03.217Z,99.90
2022-10-12T14:42:36.418Z,99.90
2022-10-12T14:45:26.348Z,99.90
2022-10-12T14:47:57.296Z,99.90
2022-10-12T14:50:28.155Z,99.90
2022-10-12T14:53:01.215Z,99.90
2022-10-12T14:55:36.412Z,99.90
2022-10-12T14:58:08.967Z,99.90
2022-10-12T15:00:41.555Z,99.90
2022-10-12T15:03:12.430Z,99.90
2022-10-12T15:05:43.215Z,99.90
2022-10-12T15:08:13.912Z,99.90
2022-10-12T15:10:44.745Z,99.90
2022-10-12T15:13:17.001Z,99.90
2022-10-12T15:15:50.978Z,99.90
2022-10-12T15:18:21.755Z,99.90
2022-10-12T15:20:52.580Z,99.90
2022-10-12T15:23:23.341Z,99.90
2022-10-12T15:26:00.552Z,99.90
2022-10-12T15:28:31.397Z,99.90
2022-10-12T15:31:16.824Z,99.90
2022-10-12T15:33:48.462Z,99.90
2022-10-12T15:36:19.193Z,99.90
2022-10-12T15:38:50.024Z,99.90
2022-10-12T15:41:23.434Z,99.90
2022-10-12T15:43:54.177Z,99.90
2022-10-12T15:46:26.782Z,99.90
2022-10-12T15:48:57.604Z,99.90
2022-10-12T15:51:28.758Z,99.90
2022-10-12T15:53:59.656Z,99.90
2022-10-12T15:56:30.749Z,99.90
2022-10-12T15:59:01.491Z,99.90
2022-10-12T16:01:35.568Z,99.90
2022-10-12T16:04:06.961Z,99.90
2022-10-12T16:06:37.705Z,99.90
2022-10-12T16:09:08.425Z,99.90
2022-10-12T16:11:39.321Z,99.90
2022-10-12T16:14:10.084Z,99.90
2022-10-12T16:16:42.457Z,99.90
2022-10-12T16:19:13.245Z,98.00
2022-10-12T16:21:43.995Z,96.20
2022-10-12T16:24:14.758Z,92.90
2022-10-12T16:26:48.046Z,91.60
2022-10-12T16:29:18.807Z,86.80
2022-10-12T16:31:51.185Z,88.10
2022-10-12T16:34:24.720Z,81.70
2022-10-12T16:36:56.586Z,82.00
2022-10-12T16:39:28.500Z,80.50
2022-10-12T16:41:59.266Z,77.50
2022-10-12T16:44:30.034Z,79.50
2022-10-12T16:47:02.866Z,74.60
2022-10-12T16:49:33.653Z,74.40
2022-10-12T16:52:04.668Z,75.10
2022-10-12T16:54:35.813Z,71.70
2022-10-12T16:57:06.626Z,72.60
2022-10-12T16:59:37.422Z,71.90
2022-10-12T17:02:10.153Z,71.80
2022-10-12T17:04:40.981Z,68.70
2022-10-12T17:07:12.834Z,65.60
2022-10-12T17:09:43.682Z,63.90
2022-10-12T17:12:14.772Z,64.90
2022-10-12T17:14:45.842Z,66.20
2022-10-12T17:17:18.563Z,67.90
2022-10-12T17:19:49.513Z,65.80
2022-10-12T17:22:20.331Z,63.90
2022-10-12T17:24:51.266Z,65.50
2022-10-12T17:27:22.010Z,63.70
2022-10-12T17:29:52.767Z,64.10
2022-10-12T17:32:25.165Z,64.40
2022-10-12T17:34:55.931Z,62.60
2022-10-12T17:37:26.702Z,61.20
2022-10-12T17:39:57.715Z,60.90
2022-10-12T17:42:29.126Z,59.80
2022-10-12T17:44:59.867Z,58.40
2022-10-12T17:47:32.336Z,59.80
2022-10-12T17:50:03.178Z,59.30
2022-10-12T17:52:33.942Z,57.70
2022-10-12T17:55:04.743Z,58.50
2022-10-12T17:57:35.510Z,59.70
2022-10-12T18:00:08.412Z,59.70
2022-10-12T18:02:40.792Z,59.60
2022-10-12T18:05:11.835Z,59.90
2022-10-12T18:07:42.581Z,58.20
2022-10-12T18:10:13.807Z,58.60
2022-10-12T18:12:45.896Z,61.40
2022-10-12T18:15:17.045Z,62.50
2022-10-12T18:17:50.761Z,61.60
2022-10-12T18:20:21.584Z,59.20
2022-10-12T18:22:52.360Z,61.80
2022-10-12T18:25:23.139Z,60.10
2022-10-12T18:27:53.878Z,62.50
2022-10-12T18:30:24.640Z,62.10
2022-10-12T18:32:57.057Z,60.80
2022-10-12T18:35:29.191Z,61.00
2022-10-12T18:37:59.948Z,61.70
2022-10-12T18:40:30.707Z,58.70
2022-10-12T18:43:01.446Z,58.20
2022-10-12T18:45:32.902Z,58.40
2022-10-12T18:48:07.783Z,57.50
2022-10-12T18:50:38.683Z,59.40
2022-10-12T18:53:09.597Z,60.40
2022-10-12T18:55:40.476Z,59.90
2022-10-12T18:58:11.266Z,58.20
2022-10-12T19:00:44.021Z,60.00
2022-10-12T19:03:17.396Z,59.10
2022-10-12T19:05:48.167Z,60.00
2022-10-12T19:08:18.922Z,59.60
2022-10-12T19:10:49.660Z,58.90
2022-10-12T19:13:20.394Z,60.00
2022-10-12T19:15:51.120Z,61.50
2022-10-12T19:18:23.533Z,60.10
2022-10-12T19:20:54.273Z,60.00
2022-10-12T19:23:25.028Z,60.90
2022-10-12T19:25:55.757Z,63.90
2022-10-12T19:28:26.606Z,65.40
2022-10-12T19:30:57.427Z,65.70
2022-10-12T19:33:31.511Z,64.30
2022-10-12T19:36:04.506Z,66.10
2022-10-12T19:38:35.402Z,63.70
2022-10-12T19:41:06.651Z,64.40
2022-10-12T19:43:38.190Z,67.70
2022-10-12T19:46:10.184Z,66.40
2022-10-12T19:48:45.575Z,67.50
2022-10-12T19:51:17.492Z,65.90
2022-10-12T19:53:48.627Z,66.60
2022-10-12T19:56:21.606Z,69.00
2022-10-12T19:58:53.485Z,67.60
2022-10-12T20:01:25.494Z,69.00
2022-10-12T20:03:58.238Z,67.40
2022-10-12T20:06:31.211Z,68.50
2022-10-12T20:09:03.804Z,67.90
2022-10-12T20:11:34.966Z,68.20
2022-10-12T20:14:05.752Z,66.60
2022-10-12T20:16:36.788Z,69.50
2022-10-12T20:19:10.553Z,68.30
2022-10-12T20:21:41.325Z,69.70
2022-10-12T20:24:12.519Z,69.50
2022-10-12T20:26:43.277Z,68.50
2022-10-12T20:29:14.186Z,68.50
2022-10-12T20:31:45.445Z,70.40
2022-10-12T20:34:17.877Z,70.60
2022-10-12T20:36:48.838Z,68.00
2022-10-12T20:39:19.646Z,70.40
2022-10-12T20:41:50.370Z,70.80
2022-10-12T20:44:21.109Z,70.20
2022-10-12T20:46:53.411Z,69.90
2022-10-12T20:49:25.774Z,70.60
2022-10-12T20:51:56.583Z,71.70
2022-10-12T20:54:27.355Z,70.70
2022-10-12T20:56:58.410Z,70.40
2022-10-12T20:59:29.231Z,70.20
2022-10-12T21:01:59.966Z,71.50
2022-10-12T21:04:37.494Z,70.50
2022-10-12T21:07:09.160Z,70.90
2022-10-12T21:09:39.875Z,71.40
2022-10-12T21:12:10.693Z,69.90
2022-10-12T21:14:41.443Z,70.40
2022-10-12T21:17:12.198Z,71.60
2022-10-12T21:19:44.630Z,70.30
2022-10-12T21:22:15.628Z,71.40
2022-10-12T21:24:46.618Z,71.90
2022-10-12T21:27:17.351Z,72.90
2022-10-12T21:29:48.118Z,71.40
2022-10-12T21:32:19.025Z,71.30
2022-10-12T21:34:52.719Z,70.60
2022-10-12T21:37:23.449Z,70.40
2022-10-12T21:39:54.579Z,70.90
2022-10-12T21:42:25.418Z,72.10
2022-10-12T21:44:56.147Z,71.00
2022-10-12T21:47:26.938Z,72.60
2022-10-12T21:49:59.335Z,72.60
2022-10-12T21:52:30.116Z,72.80
2022-10-12T21:55:00.875Z,73.20
2022-10-12T21:57:32.148Z,72.40
2022-10-12T22:00:02.903Z,72.80
2022-10-12T22:02:33.662Z,73.10
2022-10-12T22:05:06.161Z,73.90
2022-10-12T22:07:36.928Z,72.60
2022-10-12T22:10:08.213Z,71.30
2022-10-12T22:12:38.946Z,71.80
2022-10-12T22:15:10.670Z,70.80
2022-10-12T22:17:41.450Z,71.20
2022-10-12T22:20:14.800Z,72.80
2022-10-12T22:22:45.537Z,73.30
2022-10-12T22:25:16.337Z,74.30
2022-10-12T22:27:47.075Z,73.60
2022-10-12T22:30:17.947Z,73.00
2022-10-12T22:32:48.694Z,73.70
2022-10-12T22:35:21.123Z,73.40
2022-10-12T22:37:51.916Z,73.30
2022-10-12T22:40:22.689Z,73.60
2022-10-12T22:42:54.978Z,72.60
2022-10-12T22:45:28.055Z,74.70
2022-10-12T22:47:59.066Z,73.80
2022-10-12T22:50:31.869Z,71.80
2022-10-12T22:53:02.614Z,73.00
2022-10-12T22:55:33.564Z,73.70
2022-10-12T22:58:05.326Z,73.80
2022-10-12T23:00:36.397Z,74.40
2022-10-12T23:03:07.646Z,74.90
2022-10-12T23:05:40.107Z,73.80
2022-10-12T23:08:15.827Z,75.30
2022-10-12T23:10:46.585Z,75.10
2022-10-12T23:13:17.327Z,75.30
2022-10-12T23:15:48.089Z,75.40
2022-10-12T23:18:19.023Z,75.80
2022-10-12T23:20:51.406Z,76.00
2022-10-12T23:23:22.177Z,76.20
2022-10-12T23:25:52.950Z,75.60
2022-10-12T23:28:23.751Z,76.60
2022-10-12T23:30:54.644Z,77.40
2022-10-12T23:33:25.505Z,77.00
2022-10-12T23:36:02.458Z,77.20
2022-10-12T23:38:34.197Z,77.40
2022-10-12T23:41:05.541Z,77.30
2022-10-12T23:43:36.653Z,77.90
2022-10-12T23:46:08.229Z,78.70
2022-10-12T23:48:39.016Z,78.70
2022-10-12T23:51:12.489Z,80.90
2022-10-12T23:53:44.332Z,80.40
2022-10-12T23:56:15.202Z,81.80
2022-10-12T23:58:45.954Z,81.80
